Terminal Aerodrome Forecast
Issued by NWS

Home | Current Version | Previous Version | Graphics & Text | Print | Product List | Glossary On
Versions: 1 2 3 4 5 6 7 8 9 10 11 12 13 14 15 16 17 18
000
FTUS43 KBIS 010117 AAA
TAFJMS
TAF AMD
KJMS 010117Z 0101/0124 32014G23KT P6SM VCSH BKN090
      TEMPO 0101/0103 6SM -SHRA BKN070
     FM010500 33006KT P6SM SKC
     FM011500 26007KT P6SM SKC
     FM011700 26010KT P6SM SCT060
     FM012100 25012KT P6SM SCT080=

USA.gov is the U.S. government's official web portal to all federal, state and local government web resources and services.